Time;durP1;ratioP1;P1;durP2;ratioP2;P2;SDS_P1;SDS_P2;PMS_P1;PMS_P2;Temp;Humidity;BMP_temperature;BMP_pressure;BME280_temperature;BME280_humidity;BME280_pressure;Samples;Min_cycle;Max_cycle;Signal;HPM_P1;HPM_P2
2023/06/25 00:01:26;;;;;;;6.73;3.90;;;18.80;98.00;;;;;;4975624;28;21336;-66
2023/06/25 00:03:53;;;;;;;7.30;4.10;;;18.80;98.00;;;;;;4975431;28;20465;-67
2023/06/25 00:06:23;;;;;;;9.00;4.27;;;19.00;98.00;;;;;;4975676;28;20465;-67
2023/06/25 00:08:50;;;;;;;8.70;4.37;;;18.80;98.00;;;;;;4975137;28;20557;-67
2023/06/25 00:11:17;;;;;;;6.43;3.93;;;18.80;98.00;;;;;;4974813;28;20550;-67
2023/06/25 00:13:44;;;;;;;7.60;4.30;;;18.80;98.00;;;;;;4974689;28;20488;-66
2023/06/25 00:16:11;;;;;;;6.80;3.73;;;18.70;98.00;;;;;;4974701;28;20978;-66
2023/06/25 00:18:39;;;;;;;6.17;3.47;;;18.80;98.00;;;;;;4974699;28;20465;-67
2023/06/25 00:21:06;;;;;;;7.13;4.23;;;18.80;98.00;;;;;;4974479;28;20465;-67
2023/06/25 00:23:35;;;;;;;6.67;3.77;;;18.80;98.00;;;;;;4974586;28;20457;-67
2023/06/25 00:26:03;;;;;;;8.10;3.90;;;18.80;98.00;;;;;;4956983;28;20449;-67
2023/06/25 00:28:37;;;;;;;7.87;4.00;;;18.70;98.00;;;;;;4974224;28;20532;-67
2023/06/25 00:31:04;;;;;;;5.57;3.90;;;18.60;98.00;;;;;;4973783;28;20902;-66
2023/06/25 00:33:32;;;;;;;6.03;3.93;;;18.70;98.00;;;;;;4974229;28;20536;-66
2023/06/25 00:36:06;;;;;;;7.83;4.10;;;18.60;98.00;;;;;;4973976;28;20536;-66
2023/06/25 00:38:37;;;;;;;6.00;3.93;;;18.60;98.00;;;;;;4974173;28;20987;-67
2023/06/25 00:41:04;;;;;;;6.90;3.87;;;18.60;98.00;;;;;;4973908;28;21299;-67
2023/06/25 00:43:31;;;;;;;5.30;3.50;;;18.50;98.00;;;;;;4973975;28;21038;-67
2023/06/25 00:45:58;;;;;;;7.70;4.00;;;18.30;98.00;;;;;;4973316;28;20472;-66
2023/06/25 00:48:26;;;;;;;6.10;4.13;;;18.50;98.00;;;;;;4973897;28;21123;-66
2023/06/25 00:51:00;;;;;;;6.83;3.83;;;18.40;98.00;;;;;;4973622;28;20489;-66
2023/06/25 00:53:30;;;;;;;6.00;3.70;;;18.30;98.00;;;;;;4973838;28;21158;-67
2023/06/25 00:55:59;;;;;;;6.33;4.00;;;18.10;98.00;;;;;;4973621;28;20460;-67
2023/06/25 00:58:26;;;;;;;6.90;3.87;;;18.00;98.00;;;;;;4973479;28;20457;-66
2023/06/25 01:00:56;;;;;;;8.23;4.00;;;17.70;98.00;;;;;;4973547;28;20878;-66
2023/06/25 01:03:29;;;;;;;7.17;4.00;;;17.60;98.00;;;;;;4973627;28;20453;-67
2023/06/25 01:06:03;;;;;;;7.50;3.93;;;17.70;98.00;;;;;;4973468;28;20468;-67
2023/06/25 01:08:32;;;;;;;8.47;3.47;;;17.70;98.00;;;;;;4973715;28;20457;-67
2023/06/25 01:11:02;;;;;;;5.67;3.53;;;17.80;98.00;;;;;;4972223;28;20539;-66
2023/06/25 01:13:30;;;;;;;6.90;3.97;;;17.60;98.00;;;;;;4973767;28;20476;-67
2023/06/25 01:15:56;;;;;;;7.40;4.17;;;17.60;98.00;;;;;;4972261;28;20524;-67
2023/06/25 01:18:24;;;;;;;5.63;3.63;;;17.50;98.00;;;;;;4973266;28;20457;-66
2023/06/25 01:20:52;;;;;;;6.83;3.60;;;17.50;98.00;;;;;;4973247;28;20804;-66
2023/06/25 01:23:22;;;;;;;7.13;4.23;;;17.50;98.00;;;;;;4973288;28;21018;-66
2023/06/25 01:25:50;;;;;;;6.37;3.70;;;17.50;98.00;;;;;;4973145;28;20465;-67
2023/06/25 01:28:20;;;;;;;8.10;4.20;;;17.60;98.00;;;;;;4972840;28;20550;-66
2023/06/25 01:30:51;;;;;;;5.73;3.77;;;17.50;98.00;;;;;;4972821;28;20485;-66
2023/06/25 01:33:19;;;;;;;5.47;3.43;;;17.40;98.00;;;;;;4972709;28;20465;-67
2023/06/25 01:38:37;;;;;;;6.37;4.07;;;17.30;98.00;;;;;;4970131;28;20544;-66
2023/06/25 01:41:05;;;;;;;7.20;3.93;;;17.50;98.00;;;;;;4972963;28;20829;-67
2023/06/25 01:43:32;;;;;;;6.83;4.00;;;17.60;98.00;;;;;;4972854;28;20808;-67
2023/06/25 01:45:59;;;;;;;7.07;4.00;;;17.60;98.00;;;;;;4972678;28;20911;-66
2023/06/25 01:48:26;;;;;;;8.30;4.13;;;17.50;98.00;;;;;;4972633;28;20462;-66
2023/06/25 01:50:53;;;;;;;6.10;3.67;;;17.50;98.00;;;;;;4972648;28;20513;-66
2023/06/25 01:53:21;;;;;;;7.57;3.80;;;17.30;98.00;;;;;;4972741;28;20584;-66
2023/06/25 01:55:52;;;;;;;8.17;4.80;;;17.20;98.00;;;;;;4972673;28;20462;-67
2023/06/25 01:58:20;;;;;;;8.77;3.73;;;17.10;98.00;;;;;;4971933;28;20520;-66
2023/06/25 02:00:47;;;;;;;7.17;4.17;;;17.20;98.00;;;;;;4972779;28;20453;-67
2023/06/25 02:03:14;;;;;;;7.17;4.40;;;17.10;98.00;;;;;;4972613;28;20489;-66
2023/06/25 02:05:41;;;;;;;8.67;3.90;;;17.10;98.00;;;;;;4972555;28;20520;-66
2023/06/25 02:08:08;;;;;;;6.80;4.00;;;17.10;98.00;;;;;;4972818;28;20453;-67
2023/06/25 02:10:36;;;;;;;7.20;4.23;;;16.90;98.00;;;;;;4972462;28;20481;-67
2023/06/25 02:13:04;;;;;;;6.67;3.80;;;16.80;98.00;;;;;;4972485;28;20490;-66
2023/06/25 02:15:32;;;;;;;7.37;4.20;;;16.90;98.00;;;;;;4972491;28;20794;-66
2023/06/25 02:17:59;;;;;;;8.30;4.33;;;16.90;98.00;;;;;;4972706;28;20496;-67
2023/06/25 02:20:38;;;;;;;7.53;3.87;;;16.70;98.00;;;;;;4972785;28;20465;-67
2023/06/25 02:23:05;;;;;;;6.87;3.90;;;16.60;98.00;;;;;;4972178;28;20679;-66
2023/06/25 02:25:32;;;;;;;9.30;3.83;;;16.60;98.00;;;;;;4972396;28;20524;-66
2023/06/25 02:27:59;;;;;;;7.77;3.90;;;16.70;98.00;;;;;;4972395;28;20516;-66
2023/06/25 02:30:27;;;;;;;7.10;4.20;;;16.90;98.00;;;;;;4970997;28;20563;-66
2023/06/25 02:32:55;;;;;;;6.83;4.07;;;16.90;98.00;;;;;;4972237;28;20464;-67
2023/06/25 02:35:22;;;;;;;10.17;5.00;;;16.90;98.00;;;;;;4972238;28;20460;-66
2023/06/25 02:37:50;;;;;;;6.47;3.77;;;16.70;98.00;;;;;;4972163;28;20852;-66
2023/06/25 02:40:17;;;;;;;7.30;3.90;;;16.70;98.00;;;;;;4972081;28;20464;-66
2023/06/25 02:42:44;;;;;;;7.10;4.30;;;16.60;98.00;;;;;;4972404;28;20464;-66
2023/06/25 02:45:11;;;;;;;7.97;4.10;;;16.70;98.00;;;;;;4972211;28;20460;-66
2023/06/25 02:47:39;;;;;;;8.00;3.93;;;16.70;98.00;;;;;;4972283;28;20454;-66
2023/06/25 02:50:07;;;;;;;7.07;4.00;;;16.60;98.00;;;;;;4971994;28;20462;-66
2023/06/25 02:52:34;;;;;;;8.33;3.73;;;16.60;98.00;;;;;;4972112;28;20453;-66
2023/06/25 02:55:01;;;;;;;6.80;3.90;;;16.50;98.00;;;;;;4972208;28;20838;-66
2023/06/25 02:57:29;;;;;;;5.97;4.03;;;16.50;98.00;;;;;;4970837;28;20573;-66
2023/06/25 02:59:57;;;;;;;8.07;4.37;;;16.50;98.00;;;;;;4972351;28;20492;-67
2023/06/25 03:02:24;;;;;;;7.37;4.10;;;16.30;98.00;;;;;;4971044;28;20456;-67
2023/06/25 03:04:54;;;;;;;7.10;4.13;;;16.20;98.00;;;;;;4972122;28;20465;-67
2023/06/25 03:07:21;;;;;;;9.50;4.20;;;16.00;98.00;;;;;;4972119;28;20461;-66
2023/06/25 03:09:48;;;;;;;9.90;3.87;;;16.10;98.00;;;;;;4974281;28;20461;-66
2023/06/25 03:12:15;;;;;;;7.37;3.80;;;16.20;98.00;;;;;;4975450;28;20481;-66
2023/06/25 03:14:42;;;;;;;5.97;3.70;;;16.10;98.00;;;;;;4975603;28;20452;-66
2023/06/25 03:17:11;;;;;;;7.50;3.87;;;16.10;98.00;;;;;;4975394;28;20457;-66
2023/06/25 03:19:38;;;;;;;9.23;4.20;;;16.00;98.00;;;;;;4975489;28;20457;-66
2023/06/25 03:22:06;;;;;;;7.90;4.37;;;15.90;98.00;;;;;;4975303;28;20460;-66
2023/06/25 03:24:34;;;;;;;8.00;4.33;;;16.00;98.00;;;;;;4975444;28;20465;-67
2023/06/25 03:27:01;;;;;;;9.60;4.20;;;16.00;98.00;;;;;;4975188;28;20461;-66
2023/06/25 03:29:28;;;;;;;6.60;4.27;;;16.10;98.00;;;;;;4975107;28;20472;-66
2023/06/25 03:31:55;;;;;;;8.37;4.80;;;16.10;98.00;;;;;;4975514;28;20481;-66
2023/06/25 03:34:22;;;;;;;6.20;3.90;;;16.20;98.00;;;;;;4975283;28;20461;-66
2023/06/25 03:36:49;;;;;;;7.47;4.00;;;16.30;98.00;;;;;;4975093;28;20860;-66
2023/06/25 03:39:18;;;;;;;7.30;4.30;;;16.20;98.00;;;;;;4975287;28;20468;-66
2023/06/25 03:41:45;;;;;;;7.43;4.03;;;16.10;98.00;;;;;;4974900;28;20907;-66
2023/06/25 03:44:12;;;;;;;7.03;3.80;;;16.00;98.00;;;;;;4973849;28;20463;-66
2023/06/25 03:46:39;;;;;;;9.70;4.40;;;15.90;98.00;;;;;;4975065;28;20458;-66
2023/06/25 03:49:08;;;;;;;6.57;3.70;;;15.90;98.00;;;;;;4974951;28;20983;-66
2023/06/25 03:51:35;;;;;;;7.10;4.20;;;15.90;98.00;;;;;;4974972;28;20489;-66
2023/06/25 03:54:02;;;;;;;7.37;3.90;;;15.70;98.00;;;;;;4975001;28;20520;-66
2023/06/25 03:56:31;;;;;;;8.00;4.00;;;15.60;98.00;;;;;;4975049;28;20824;-66
2023/06/25 03:58:58;;;;;;;9.13;3.60;;;15.70;98.00;;;;;;4974906;28;20468;-66
2023/06/25 04:01:25;;;;;;;7.37;4.20;;;15.70;98.00;;;;;;4974832;28;20531;-66
2023/06/25 04:03:52;;;;;;;9.10;4.27;;;15.70;98.00;;;;;;4974749;28;20464;-66
2023/06/25 04:06:19;;;;;;;8.30;4.30;;;15.70;98.00;;;;;;4974704;28;20859;-66
2023/06/25 04:08:46;;;;;;;7.00;4.13;;;15.80;98.00;;;;;;4974573;28;20524;-67
2023/06/25 04:11:13;;;;;;;8.23;4.33;;;16.00;98.00;;;;;;4974417;28;20489;-67
2023/06/25 04:13:42;;;;;;;8.33;4.10;;;16.20;98.00;;;;;;4974484;28;20453;-67
2023/06/25 04:16:09;;;;;;;6.60;4.07;;;16.20;98.00;;;;;;4974306;28;20462;-67
2023/06/25 04:18:37;;;;;;;8.27;4.60;;;16.10;98.00;;;;;;4974536;28;20516;-67
2023/06/25 04:21:05;;;;;;;7.27;4.30;;;16.00;98.00;;;;;;4972338;28;20480;-67
2023/06/25 04:23:32;;;;;;;6.80;4.10;;;15.90;98.00;;;;;;4974218;28;20545;-67
2023/06/25 04:25:59;;;;;;;6.87;4.27;;;15.90;98.00;;;;;;4973059;28;20502;-66
2023/06/25 04:28:26;;;;;;;5.60;3.90;;;16.10;98.00;;;;;;4974333;28;20460;-67
2023/06/25 04:30:55;;;;;;;6.87;3.90;;;16.20;98.00;;;;;;4974151;28;20486;-67
2023/06/25 04:33:22;;;;;;;12.83;4.80;;;16.30;98.00;;;;;;4974268;28;20449;-67
2023/06/25 04:35:49;;;;;;;8.07;4.43;;;16.20;98.00;;;;;;4974266;28;20462;-67
2023/06/25 04:38:16;;;;;;;12.60;4.83;;;16.20;98.00;;;;;;4974090;28;20502;-67
2023/06/25 04:40:43;;;;;;;8.43;4.60;;;16.10;98.00;;;;;;4973902;28;20485;-66
2023/06/25 04:43:10;;;;;;;6.43;4.03;;;16.00;98.00;;;;;;4974046;28;20453;-67
2023/06/25 04:45:37;;;;;;;7.47;4.57;;;15.90;98.00;;;;;;4973943;28;20472;-67
2023/06/25 04:48:08;;;;;;;9.93;4.30;;;16.00;98.00;;;;;;4974067;28;20453;-67
2023/06/25 04:50:35;;;;;;;8.23;4.23;;;16.00;98.00;;;;;;4974043;28;20858;-67
2023/06/25 04:53:02;;;;;;;6.93;4.17;;;16.20;98.00;;;;;;4973755;28;20468;-67
2023/06/25 04:55:29;;;;;;;10.73;4.37;;;16.40;98.00;;;;;;4973947;28;20466;-67
2023/06/25 04:57:57;;;;;;;6.40;4.17;;;16.40;98.00;;;;;;4973468;28;20468;-66
2023/06/25 05:00:24;;;;;;;8.13;4.43;;;16.50;98.00;;;;;;4972340;28;20457;-67
2023/06/25 05:02:51;;;;;;;7.63;4.20;;;16.80;98.00;;;;;;4973645;28;21025;-67
2023/06/25 05:05:20;;;;;;;8.57;4.43;;;16.80;98.00;;;;;;4973618;28;20457;-67
2023/06/25 05:07:47;;;;;;;6.57;4.10;;;16.90;98.00;;;;;;4973137;28;20465;-67
2023/06/25 05:10:16;;;;;;;7.00;4.10;;;17.00;98.00;;;;;;4972309;28;20520;-67
2023/06/25 05:12:43;;;;;;;9.90;4.70;;;17.00;98.00;;;;;;4973256;28;20485;-67
2023/06/25 05:15:12;;;;;;;8.63;4.53;;;17.30;98.00;;;;;;4972289;28;20461;-67
2023/06/25 05:17:39;;;;;;;8.93;4.37;;;17.40;98.00;;;;;;4973360;28;20469;-67
2023/06/25 05:20:07;;;;;;;8.27;4.10;;;17.60;98.00;;;;;;4973140;28;20472;-67
2023/06/25 05:22:36;;;;;;;8.77;4.77;;;17.80;98.00;;;;;;4973063;28;20501;-67
2023/06/25 05:25:03;;;;;;;8.40;4.87;;;17.80;98.00;;;;;;4972946;28;20461;-67
2023/06/25 05:27:30;;;;;;;7.70;4.40;;;17.80;98.00;;;;;;4971810;28;20461;-67
2023/06/25 05:29:57;;;;;;;9.73;4.83;;;17.80;98.00;;;;;;4972834;28;20473;-67
2023/06/25 05:32:24;;;;;;;8.00;4.67;;;17.90;98.00;;;;;;4972923;28;20489;-67
2023/06/25 05:34:51;;;;;;;9.30;4.70;;;18.00;98.00;;;;;;4973031;28;20465;-67
2023/06/25 05:37:30;;;;;;;8.37;4.50;;;18.10;98.00;;;;;;4971762;28;20462;-67
2023/06/25 05:39:59;;;;;;;7.27;4.23;;;18.20;98.00;;;;;;4973155;28;21008;-67
2023/06/25 05:42:26;;;;;;;7.90;4.43;;;18.20;98.00;;;;;;4973287;28;20457;-67
2023/06/25 05:44:53;;;;;;;8.27;4.60;;;18.20;98.00;;;;;;4972944;28;20453;-67
2023/06/25 05:47:20;;;;;;;7.50;4.47;;;18.30;98.00;;;;;;4972835;28;20476;-67
2023/06/25 05:49:47;;;;;;;9.40;4.70;;;18.50;98.00;;;;;;4972943;28;20539;-67
2023/06/25 05:52:14;;;;;;;7.87;4.63;;;18.60;98.00;;;;;;4972675;28;20481;-67
2023/06/25 05:54:41;;;;;;;7.87;4.80;;;18.60;98.00;;;;;;4971586;28;20468;-67
2023/06/25 05:57:10;;;;;;;8.00;4.57;;;18.60;98.00;;;;;;4972590;28;20465;-67
2023/06/25 05:59:37;;;;;;;8.70;4.83;;;18.60;98.00;;;;;;4972612;28;20521;-67
2023/06/25 06:02:07;;;;;;;7.73;4.70;;;18.70;98.00;;;;;;4972615;28;20469;-67
2023/06/25 06:04:35;;;;;;;9.10;4.80;;;18.80;98.00;;;;;;4972763;28;20497;-67
2023/06/25 06:07:02;;;;;;;7.23;4.17;;;18.80;98.00;;;;;;4972322;28;20462;-67
2023/06/25 06:09:29;;;;;;;5.97;4.10;;;19.00;98.00;;;;;;4972468;28;20956;-67
2023/06/25 06:11:56;;;;;;;8.13;4.33;;;19.10;98.00;;;;;;4972287;28;20494;-67
2023/06/25 06:14:26;;;;;;;10.83;4.93;;;19.20;98.00;;;;;;4972386;28;20461;-67
2023/06/25 06:16:54;;;;;;;7.23;4.07;;;19.30;98.00;;;;;;4972470;28;20464;-67
2023/06/25 06:19:21;;;;;;;7.53;4.37;;;19.40;98.00;;;;;;4972490;28;20520;-67
2023/06/25 06:21:48;;;;;;;8.10;4.60;;;19.50;98.00;;;;;;4972532;28;20472;-67
2023/06/25 06:24:15;;;;;;;7.30;4.73;;;19.80;98.00;;;;;;4972436;28;20461;-67
2023/06/25 06:26:42;;;;;;;7.07;4.33;;;19.90;98.00;;;;;;4972116;28;20465;-65
2023/06/25 06:29:09;;;;;;;9.83;4.13;;;20.00;98.00;;;;;;4972238;28;20457;-65
2023/06/25 06:31:40;;;;;;;6.17;3.80;;;20.10;98.00;;;;;;4972376;28;20823;-66
2023/06/25 06:34:07;;;;;;;9.10;4.23;;;20.10;98.00;;;;;;4972394;28;20518;-66
2023/06/25 06:36:34;;;;;;;7.17;4.20;;;20.30;98.00;;;;;;4972348;28;20468;-65
2023/06/25 06:39:04;;;;;;;8.80;4.43;;;20.40;98.00;;;;;;4971351;28;20457;-66
2023/06/25 06:41:31;;;;;;;11.93;6.00;;;20.60;98.00;;;;;;4972218;28;20465;-65
2023/06/25 06:44:12;;;;;;;10.93;5.20;;;20.70;98.00;;;;;;4973292;28;20512;-66
2023/06/25 06:46:41;;;;;;;7.73;4.60;;;20.90;98.00;;;;;;4976032;28;20555;-65
2023/06/25 06:49:08;;;;;;;8.50;4.53;;;21.00;98.00;;;;;;4975949;28;20480;-66
2023/06/25 06:51:36;;;;;;;9.10;4.60;;;21.10;98.00;;;;;;4975798;28;20481;-66
2023/06/25 06:54:03;;;;;;;7.60;4.40;;;21.20;98.00;;;;;;4975806;28;20516;-65
2023/06/25 06:56:30;;;;;;;9.90;4.90;;;21.30;98.00;;;;;;4975826;28;20991;-66
2023/06/25 06:58:57;;;;;;;11.97;4.30;;;21.40;98.00;;;;;;4975427;28;20963;-65
2023/06/25 07:01:25;;;;;;;8.67;4.73;;;21.50;98.00;;;;;;4975738;28;20460;-66
2023/06/25 07:03:54;;;;;;;8.73;4.57;;;21.60;98.00;;;;;;4975766;28;20465;-66
2023/06/25 07:06:21;;;;;;;8.80;4.73;;;21.80;98.00;;;;;;4975377;28;20520;-66
2023/06/25 07:08:48;;;;;;;6.70;4.00;;;21.90;98.00;;;;;;4975610;28;20520;-66
2023/06/25 07:11:18;;;;;;;9.70;5.83;;;22.00;95.50;;;;;;4975637;28;20469;-66
2023/06/25 07:13:45;;;;;;;6.00;3.87;;;22.10;96.00;;;;;;4974537;28;20470;-67
2023/06/25 07:16:13;;;;;;;10.40;4.30;;;22.30;98.00;;;;;;4974267;28;20461;-67
2023/06/25 07:18:43;;;;;;;9.03;4.50;;;22.50;97.30;;;;;;4975618;28;20466;-67
2023/06/25 07:21:11;;;;;;;7.97;4.37;;;22.80;96.20;;;;;;4975499;28;20484;-67
2023/06/25 07:23:39;;;;;;;6.53;3.73;;;23.00;97.20;;;;;;4975571;28;20504;-68
2023/06/25 07:26:06;;;;;;;8.33;4.40;;;23.20;94.60;;;;;;4975326;28;20461;-66
2023/06/25 07:28:33;;;;;;;7.30;4.20;;;23.40;91.70;;;;;;4975470;28;20450;-67
2023/06/25 07:31:00;;;;;;;8.27;4.40;;;23.50;92.60;;;;;;4975252;28;20476;-67
2023/06/25 07:33:27;;;;;;;11.03;4.50;;;23.70;88.60;;;;;;4974249;28;20859;-67
2023/06/25 07:35:54;;;;;;;6.83;4.30;;;23.80;88.40;;;;;;4975217;28;20465;-68
2023/06/25 07:38:23;;;;;;;7.03;4.23;;;23.90;90.10;;;;;;4975393;28;20472;-67
2023/06/25 07:40:53;;;;;;;8.90;4.93;;;24.10;90.20;;;;;;4975162;28;20960;-67
2023/06/25 07:43:20;;;;;;;9.27;4.43;;;24.40;87.00;;;;;;4975129;28;20458;-68
2023/06/25 07:45:47;;;;;;;8.87;5.00;;;24.50;86.90;;;;;;4975033;28;20469;-67
2023/06/25 07:48:14;;;;;;;13.27;5.47;;;24.70;86.30;;;;;;4974976;28;20829;-68
2023/06/25 07:50:41;;;;;;;9.03;4.83;;;;;;;;;;4975087;28;20488;-68
2023/06/25 07:53:08;;;;;;;14.30;4.70;;;25.00;85.10;;;;;;4973728;28;20488;-66
2023/06/25 07:55:40;;;;;;;10.37;5.30;;;25.10;85.40;;;;;;4973703;28;20465;-67
2023/06/25 07:58:08;;;;;;;11.50;5.00;;;25.20;84.80;;;;;;4974836;28;20466;-68
2023/06/25 08:00:36;;;;;;;9.50;4.83;;;25.30;84.80;;;;;;4977325;28;20822;-67
2023/06/25 08:03:03;;;;;;;9.43;5.07;;;25.50;84.10;;;;;;4984998;28;20522;-69
2023/06/25 08:05:31;;;;;;;9.03;4.97;;;25.60;82.90;;;;;;4974967;28;20876;-67
2023/06/25 08:07:58;;;;;;;7.50;4.80;;;25.60;82.80;;;;;;4984326;28;20468;-67
2023/06/25 08:10:26;;;;;;;9.93;4.60;;;25.70;82.10;;;;;;4977143;28;20457;-69
2023/06/25 08:12:55;;;;;;;11.80;5.40;;;25.80;81.30;;;;;;4974695;28;20547;-67
2023/06/25 08:15:23;;;;;;;12.03;4.73;;;25.90;80.20;;;;;;4975348;28;20480;-67
2023/06/25 08:17:50;;;;;;;9.47;4.63;;;26.10;80.10;;;;;;4984069;28;20534;-67
2023/06/25 08:20:18;;;;;;;8.67;4.97;;;26.10;79.60;;;;;;4986396;28;20458;-69
2023/06/25 08:22:45;;;;;;;8.53;4.97;;;26.20;79.50;;;;;;4975075;28;20457;-68
2023/06/25 08:25:21;;;;;;;10.30;5.03;;;26.30;79.70;;;;;;4975024;28;20476;-69
2023/06/25 08:27:48;;;;;;;8.70;4.77;;;26.50;78.00;;;;;;4975094;28;20496;-67
2023/06/25 08:30:17;;;;;;;8.50;5.00;;;26.70;79.40;;;;;;4974668;28;20476;-67
2023/06/25 08:32:46;;;;;;;9.47;4.80;;;26.80;77.90;;;;;;4974734;28;20489;-69
2023/06/25 08:35:13;;;;;;;8.77;4.80;;;27.00;77.00;;;;;;4974390;28;21134;-67
2023/06/25 08:37:41;;;;;;;9.73;5.03;;;27.00;75.40;;;;;;4974605;28;20462;-67
2023/06/25 08:40:12;;;;;;;7.93;4.57;;;27.10;76.00;;;;;;4974426;28;20856;-68
2023/06/25 08:42:42;;;;;;;9.07;5.30;;;27.10;75.60;;;;;;4974262;28;20465;-69
2023/06/25 08:45:10;;;;;;;9.30;5.10;;;27.10;75.20;;;;;;4974509;28;20944;-68
2023/06/25 08:47:41;;;;;;;9.23;4.60;;;27.20;74.40;;;;;;4974439;28;20457;-69
2023/06/25 08:50:09;;;;;;;11.93;5.80;;;27.30;75.30;;;;;;4974613;28;20465;-66
2023/06/25 08:52:45;;;;;;;9.23;5.40;;;27.40;74.30;;;;;;4975627;28;21042;-68
2023/06/25 08:55:13;;;;;;;9.33;4.83;;;27.50;73.80;;;;;;4973500;28;20492;-69
2023/06/25 08:57:40;;;;;;;9.47;5.10;;;27.60;74.20;;;;;;4972398;28;20497;-67
2023/06/25 09:00:09;;;;;;;9.83;5.03;;;27.70;72.00;;;;;;4973238;28;20456;-66
2023/06/25 09:02:36;;;;;;;7.87;4.70;;;27.80;74.40;;;;;;4971676;28;20473;-66
2023/06/25 09:05:07;;;;;;;10.30;5.20;;;27.90;72.50;;;;;;4974388;28;20472;-68
2023/06/25 09:07:44;;;;;;;10.87;5.03;;;28.10;71.40;;;;;;4973103;28;20480;-66
2023/06/25 09:10:11;;;;;;;9.07;4.73;;;28.30;70.10;;;;;;4985246;28;20862;-66
2023/06/25 09:12:39;;;;;;;9.67;4.80;;;28.40;67.10;;;;;;4989602;28;20508;-66
2023/06/25 09:15:09;;;;;;;9.07;4.73;;;28.50;69.30;;;;;;4981881;28;20791;-66
2023/06/25 09:17:37;;;;;;;9.03;5.23;;;28.50;69.10;;;;;;5038133;22;21258;-87
2023/06/25 09:20:07;;;;;;;9.50;4.80;;;28.60;69.00;;;;;;5012939;28;20908;-86
2023/06/25 09:22:34;;;;;;;8.80;4.90;;;28.70;68.70;;;;;;5013208;28;20451;-87
2023/06/25 09:25:01;;;;;;;9.20;4.60;;;28.60;68.00;;;;;;5012964;28;20472;-89
2023/06/25 09:27:29;;;;;;;6.77;4.00;;;28.70;67.00;;;;;;5012398;28;20467;-88
2023/06/25 09:29:57;;;;;;;8.30;4.30;;;28.80;65.90;;;;;;5012772;28;20541;-89
2023/06/25 09:32:24;;;;;;;9.60;5.50;;;29.00;67.20;;;;;;5012919;28;21052;-88
2023/06/25 09:34:51;;;;;;;9.83;4.73;;;29.10;67.10;;;;;;5012758;28;20894;-88
2023/06/25 09:37:21;;;;;;;9.80;4.47;;;29.20;66.50;;;;;;5011966;28;20452;-88
2023/06/25 09:39:54;;;;;;;7.67;4.57;;;29.40;65.80;;;;;;5012728;28;20574;-88
2023/06/25 09:49:07;;;;;;;6.97;4.57;;;29.70;63.60;;;;;;5018827;22;20567;-68
2023/06/25 09:51:41;;;;;;;9.10;5.20;;;29.60;64.10;;;;;;5011490;28;20462;-67
2023/06/25 09:54:11;;;;;;;7.97;4.50;;;29.60;63.50;;;;;;5011698;28;20573;-68
2023/06/25 09:56:40;;;;;;;8.93;4.70;;;29.80;63.70;;;;;;5011761;28;20550;-68
2023/06/25 09:59:07;;;;;;;8.20;4.70;;;29.90;63.40;;;;;;5010522;28;20468;-68
2023/06/25 10:01:34;;;;;;;7.73;4.30;;;30.00;62.70;;;;;;5011540;28;20974;-68
2023/06/25 10:04:01;;;;;;;8.13;4.40;;;30.20;63.20;;;;;;5011609;28;20459;-68
2023/06/25 10:06:28;;;;;;;8.70;5.20;;;30.20;63.20;;;;;;5011701;28;20460;-67
2023/06/25 10:08:56;;;;;;;9.40;4.70;;;30.20;60.40;;;;;;5011741;28;20588;-68
2023/06/25 10:11:25;;;;;;;7.63;4.50;;;30.10;62.10;;;;;;5011543;28;20455;-67
2023/06/25 10:13:52;;;;;;;7.43;4.23;;;30.20;63.20;;;;;;5009973;28;21060;-68
2023/06/25 10:16:20;;;;;;;8.47;4.53;;;30.30;62.70;;;;;;5011656;28;20905;-67
2023/06/25 10:18:48;;;;;;;10.50;4.93;;;30.40;62.00;;;;;;5011098;28;20460;-68
2023/06/25 10:21:24;;;;;;;6.90;4.30;;;30.50;62.20;;;;;;5010469;28;20455;-69
2023/06/25 10:24:00;;;;;;;8.27;4.47;;;30.50;62.20;;;;;;5011808;28;20447;-68
2023/06/25 10:26:31;;;;;;;9.63;5.07;;;30.60;61.30;;;;;;5011747;28;20471;-67
2023/06/25 10:29:01;;;;;;;10.77;5.40;;;30.50;61.30;;;;;;5011443;28;20455;-67
2023/06/25 10:31:38;;;;;;;7.67;4.40;;;30.70;61.80;;;;;;5010078;28;20554;-68
2023/06/25 10:34:07;;;;;;;7.40;4.33;;;31.00;61.50;;;;;;5011305;28;20582;-67
2023/06/25 10:36:34;;;;;;;8.03;4.53;;;31.20;61.10;;;;;;5010981;28;20467;-67
2023/06/25 10:39:02;;;;;;;7.97;4.60;;;31.40;60.20;;;;;;5011191;28;20458;-67
2023/06/25 10:41:32;;;;;;;8.50;4.87;;;31.50;59.10;;;;;;5011390;28;20458;-67
2023/06/25 10:43:59;;;;;;;8.00;4.40;;;31.60;59.60;;;;;;5011269;28;20893;-66
2023/06/25 10:46:30;;;;;;;7.10;3.73;;;31.70;59.20;;;;;;5011210;28;20870;-66
2023/06/25 10:49:00;;;;;;;7.40;4.40;;;31.80;58.40;;;;;;5010930;28;20562;-67
2023/06/25 10:51:29;;;;;;;8.90;4.30;;;31.90;58.90;;;;;;5011253;28;20984;-66
2023/06/25 10:53:57;;;;;;;7.03;4.00;;;31.90;58.30;;;;;;5011135;28;20491;-65
2023/06/25 10:56:24;;;;;;;7.53;4.17;;;32.00;56.80;;;;;;5009981;28;20470;-65
2023/06/25 10:58:59;;;;;;;7.17;3.83;;;32.10;57.20;;;;;;5011138;28;20533;-65
2023/06/25 11:01:33;;;;;;;7.33;4.03;;;32.30;58.50;;;;;;5011016;28;20457;-66
2023/06/25 11:04:00;;;;;;;7.80;4.50;;;32.50;58.70;;;;;;5011204;28;20485;-66
2023/06/25 11:06:27;;;;;;;10.50;4.73;;;32.60;58.00;;;;;;5010964;28;20459;-66
2023/06/25 11:08:55;;;;;;;8.20;4.80;;;32.60;56.70;;;;;;5011486;28;20459;-66
2023/06/25 11:11:22;;;;;;;7.20;4.30;;;32.60;57.30;;;;;;5011151;28;20468;-67
2023/06/25 11:13:50;;;;;;;10.40;4.60;;;32.80;57.60;;;;;;5011281;28;20566;-67
2023/06/25 11:16:20;;;;;;;9.07;4.93;;;33.00;57.20;;;;;;5011113;28;20881;-66
2023/06/25 11:18:50;;;;;;;7.67;4.57;;;33.20;57.50;;;;;;5010969;28;20943;-66
2023/06/25 11:21:17;;;;;;;8.20;4.90;;;33.30;56.40;;;;;;5011094;28;20467;-66
2023/06/25 11:23:44;;;;;;;7.37;4.80;;;33.50;55.90;;;;;;5010826;28;20475;-67
2023/06/25 11:26:14;;;;;;;6.80;4.43;;;33.40;56.60;;;;;;5010914;28;20466;-67
2023/06/25 11:28:41;;;;;;;7.90;4.73;;;33.60;56.40;;;;;;5010772;28;20459;-67
2023/06/25 11:31:09;;;;;;;7.03;4.57;;;33.70;55.00;;;;;;5013812;28;20447;-67
2023/06/25 11:33:37;;;;;;;7.30;4.80;;;33.60;55.70;;;;;;5014207;28;20848;-67
2023/06/25 11:36:09;;;;;;;8.57;4.80;;;33.80;55.30;;;;;;5014171;28;20459;-67
2023/06/25 11:38:36;;;;;;;8.00;4.43;;;34.00;55.90;;;;;;5014228;28;20594;-67
2023/06/25 11:41:06;;;;;;;8.73;4.80;;;34.20;55.30;;;;;;5014089;28;20455;-66
2023/06/25 11:43:34;;;;;;;7.77;4.67;;;34.40;55.40;;;;;;5014009;28;20471;-67
2023/06/25 11:46:02;;;;;;;9.00;4.60;;;34.40;54.20;;;;;;5012958;28;20807;-67
2023/06/25 11:48:30;;;;;;;7.70;4.70;;;34.30;54.20;;;;;;5013794;28;20558;-67
2023/06/25 11:51:06;;;;;;;6.87;4.67;;;34.50;55.40;;;;;;5014079;28;20949;-67
2023/06/25 11:53:33;;;;;;;7.63;5.10;;;34.70;54.60;;;;;;5013966;28;20487;-66
2023/06/25 11:56:01;;;;;;;7.93;4.60;;;34.90;54.20;;;;;;5013876;28;20726;-66
2023/06/25 11:58:28;;;;;;;8.47;4.90;;;35.10;53.20;;;;;;5013855;28;20448;-67
2023/06/25 12:00:55;;;;;;;7.43;4.30;;;35.40;53.60;;;;;;5013904;28;20870;-67
2023/06/25 12:03:23;;;;;;;7.63;4.50;;;35.40;53.40;;;;;;5013839;28;20517;-67
2023/06/25 12:05:51;;;;;;;8.90;4.60;;;35.40;52.50;;;;;;5013893;28;20505;-68
2023/06/25 12:08:19;;;;;;;7.17;4.67;;;35.30;53.30;;;;;;5012769;28;21020;-67
2023/06/25 12:10:46;;;;;;;7.57;4.73;;;35.40;52.60;;;;;;5013873;28;20462;-68
2023/06/25 12:13:13;;;;;;;7.93;4.60;;;35.30;54.10;;;;;;5013632;28;20823;-67
2023/06/25 12:15:42;;;;;;;7.00;4.40;;;35.30;54.40;;;;;;5013572;28;20459;-67
2023/06/25 12:18:09;;;;;;;6.93;4.57;;;35.60;53.60;;;;;;5013565;28;20467;-68
2023/06/25 12:20:36;;;;;;;6.43;4.03;;;35.60;53.80;;;;;;5013436;28;20486;-68
2023/06/25 12:23:03;;;;;;;5.83;4.37;;;36.00;54.00;;;;;;5013244;28;20946;-67
2023/06/25 12:25:31;;;;;;;5.90;3.90;;;36.20;54.80;;;;;;5013447;28;20455;-67
2023/06/25 12:27:58;;;;;;;8.60;5.43;;;36.40;54.50;;;;;;5013246;28;20452;-67
2023/06/25 12:30:26;;;;;;;7.40;4.50;;;36.50;52.40;;;;;;5013299;28;20530;-68
2023/06/25 12:32:54;;;;;;;8.50;4.57;;;36.40;52.60;;;;;;5013038;28;20490;-67
2023/06/25 12:35:21;;;;;;;9.10;4.70;;;36.60;51.90;;;;;;5013177;28;20469;-66
2023/06/25 12:37:51;;;;;;;6.50;4.33;;;36.70;51.60;;;;;;5012929;28;20459;-67
2023/06/25 12:40:19;;;;;;;7.83;4.37;;;36.80;51.80;;;;;;5011959;28;20636;-67
2023/06/25 12:42:47;;;;;;;7.53;4.33;;;36.80;52.50;;;;;;5012325;28;20443;-65
2023/06/25 12:45:14;;;;;;;5.83;3.93;;;36.90;51.80;;;;;;5013080;28;20466;-65
2023/06/25 12:47:41;;;;;;;7.87;4.80;;;37.00;50.80;;;;;;5013005;28;20490;-65
2023/06/25 12:50:10;;;;;;;6.93;4.47;;;37.10;51.70;;;;;;5012906;28;20774;-65
2023/06/25 12:52:37;;;;;;;8.03;4.60;;;37.10;52.60;;;;;;5011693;28;20467;-64
2023/06/25 12:55:08;;;;;;;8.40;5.10;;;37.10;50.30;;;;;;5012776;28;20479;-65
2023/06/25 12:57:35;;;;;;;6.80;4.20;;;37.00;50.60;;;;;;5012483;28;20545;-64
2023/06/25 13:00:06;;;;;;;7.73;4.93;;;37.00;50.80;;;;;;5012834;28;20444;-65